Campbell River Airport
CYBL : now visible

Airfield :











YOU CAN JOIN US ON...

 
LOGIN :

Register | Disclaimer

   EN    FR    IT 

 









Legend :    VFR   Marginal VFR   IFR   Intensive IFR   Very Intensive IFR
Visi :
Ceiling :
>= 8 km
>= 3000ft
5 to 8 km
1000 to 3000 ft
1500m to 5 km
500 to 1000 ft
800 to 1500m
200 to 500 ft
< 800m
< 200 ft
Symbols :   Thunderstorms  Fog  Heavy snow  Heavy precipitations  Wind > 20 kt






- Airport Elevation : 346 ft
- IATA code : YBL


CYBL - Campbell River

CURRENT METAR :
  • 131711Z 00000KT 1 1/4SM BR BKN002 OVC012 08/07 A3019 RMK FG2SF4SC2 CIG RAG SLP228

EXPIRED METARs :
  • 131614Z 00000KT 1 1/4SM BR BKN003 OVC012 07/07 A3019 RMK FG2SF4SC2 SLP227
  • 131600Z VRB02KT 1 1/4SM BR SCT002 OVC012 07/07 A3019 RMK FG2SF2SC4 SLP227
  • 131513Z 00000KT 1SM R12/P6000FT/N BR SCT003 OVC010 07/07 A3018 RMK FG3SF1SC4 SLP224
  • 131451Z 00000KT 3SM BR SCT003 OVC010 07/07 A3019 RMK SF4SC4 SLP226
  • 131437Z 00000KT 1 1/2SM BR BKN003 OVC010 07/07 A3019 RMK SF5SC3 SLP226

TAF TAF CYBL
Valid from the 13 at 16:00 until the 14 at 04:00 UTC


131538Z 1316/1404 VRB03KT 1SM BR BKN003 OVC008
TEMPO 1316/1318 3SM BR SCT003 OVC010
FM131800 VRB03KT 2SM BR SCT005 OVC008
TEMPO 1318/1321 6SM BR SCT008 OVC015
FM132100 10005KT P6SM SCT008 OVC015
TEMPO 1321/1324 SCT008 OVC025
FM140000 10005KT P6SM BKN020
TEMPO 1400/1404 SCT020 RMK NXT FCST BY 131900Z



MET'MAP, your aeronautical weather chart ! - Copyright ORBIFLY December 2007 - Disclaimer

ORBIFLY MET'MAP TEAM :

Programming & Development : Alexandra Zaïnal
Concept & Development : Baudouin d'Aumeries
Co-Development & Prog : Marc-Olivier Méhu
Technical & hardware support : Manuel Goepfert

Contact : metmap@orbifly.com




SOURCES & CREDITS :

   NOAA       Earth
Advisory